createdAt,value
2022-12-08T00:03:16.651Z,12.00
2022-12-08T00:07:43.383Z,10.70
2022-12-08T00:11:51.801Z,10.10
2022-12-08T00:16:04.320Z,10.90
2022-12-08T00:20:13.669Z,10.00
2022-12-08T00:24:21.740Z,8.70
2022-12-08T00:28:29.644Z,8.40
2022-12-08T00:32:36.816Z,9.80
2022-12-08T00:36:46.203Z,8.40
2022-12-08T00:40:53.608Z,8.20
2022-12-08T00:45:01.484Z,7.10
2022-12-08T00:49:10.651Z,7.30
2022-12-08T00:53:18.100Z,7.40
2022-12-08T00:57:25.957Z,8.20
2022-12-08T01:01:33.870Z,9.80
2022-12-08T01:05:42.253Z,9.00
2022-12-08T01:09:49.694Z,8.40
2022-12-08T01:13:57.265Z,8.30
2022-12-08T01:18:04.838Z,8.70
2022-12-08T01:22:12.412Z,8.60
2022-12-08T01:26:21.843Z,8.30
2022-12-08T01:30:29.858Z,8.10
2022-12-08T01:34:36.992Z,8.90
2022-12-08T01:38:44.627Z,9.70
2022-12-08T01:42:52.791Z,9.40
2022-12-08T01:47:00.506Z,9.60
2022-12-08T01:51:08.941Z,9.50
2022-12-08T01:55:20.812Z,7.70
2022-12-08T01:59:28.880Z,8.30
2022-12-08T02:03:39.868Z,7.40
2022-12-08T02:07:49.094Z,7.70
2022-12-08T02:11:59.255Z,7.90
2022-12-08T02:16:10.184Z,8.70
2022-12-08T02:20:35.683Z,7.70
2022-12-08T02:24:48.522Z,6.60
2022-12-08T02:29:23.357Z,6.60
2022-12-08T02:34:00.399Z,7.30
2022-12-08T02:38:14.645Z,6.30
2022-12-08T02:42:28.072Z,7.40
2022-12-08T02:46:39.616Z,7.10
2022-12-08T02:50:47.721Z,6.60
2022-12-08T02:54:58.363Z,7.30
2022-12-08T02:59:15.386Z,9.00
2022-12-08T03:03:30.765Z,8.40
2022-12-08T03:07:42.337Z,8.20
2022-12-08T03:11:54.534Z,8.90
2022-12-08T03:16:03.979Z,9.10
2022-12-08T03:20:14.827Z,9.00
2022-12-08T03:24:25.124Z,8.70
2022-12-08T03:28:33.015Z,9.60
2022-12-08T03:32:48.006Z,9.60
2022-12-08T03:36:56.146Z,8.40
2022-12-08T03:41:22.357Z,5.80
2022-12-08T03:45:30.930Z,6.20
2022-12-08T03:49:39.354Z,8.00
2022-12-08T03:53:48.402Z,13.20
2022-12-08T03:57:56.570Z,15.50
2022-12-08T04:02:04.197Z,22.30
2022-12-08T04:06:13.023Z,13.80
2022-12-08T04:10:20.761Z,12.70
2022-12-08T04:14:28.072Z,17.10
2022-12-08T04:18:36.211Z,14.50
2022-12-08T04:22:44.349Z,11.10
2022-12-08T04:26:52.277Z,10.20
2022-12-08T04:31:02.316Z,11.00
2022-12-08T04:35:11.766Z,10.20
2022-12-08T04:39:21.438Z,8.90
2022-12-08T04:43:29.452Z,7.60
2022-12-08T04:47:37.402Z,8.20
2022-12-08T04:51:45.474Z,7.10
2022-12-08T04:55:53.316Z,6.70
2022-12-08T05:00:01.933Z,6.20
2022-12-08T05:04:10.581Z,6.00
2022-12-08T05:08:18.277Z,9.30
2022-12-08T05:12:25.472Z,9.80
2022-12-08T05:16:33.585Z,7.50
2022-12-08T05:20:41.235Z,5.40
2022-12-08T05:24:48.642Z,5.10
2022-12-08T05:28:56.162Z,4.60
2022-12-08T05:33:03.798Z,4.70
2022-12-08T05:37:11.316Z,4.60
2022-12-08T05:41:20.444Z,4.90
2022-12-08T05:45:28.206Z,6.50
2022-12-08T05:49:36.502Z,6.00
2022-12-08T05:53:44.197Z,6.10
2022-12-08T05:57:51.860Z,6.80
2022-12-08T06:02:00.704Z,6.50
2022-12-08T06:06:09.228Z,5.40
2022-12-08T06:10:17.477Z,5.20
2022-12-08T06:14:25.055Z,4.80
2022-12-08T06:18:33.167Z,6.70
2022-12-08T06:22:41.816Z,7.20
2022-12-08T06:26:49.520Z,6.80
2022-12-08T06:30:57.712Z,6.50
2022-12-08T06:35:05.720Z,7.60
2022-12-08T06:39:13.706Z,8.10
2022-12-08T06:43:22.298Z,7.00
2022-12-08T06:47:30.660Z,7.30
2022-12-08T06:51:38.555Z,8.50
2022-12-08T06:55:59.340Z,8.50
2022-12-08T07:00:09.926Z,7.80
2022-12-08T07:04:18.519Z,7.50
2022-12-08T07:08:26.052Z,7.50
2022-12-08T07:12:34.581Z,6.90
2022-12-08T07:16:42.359Z,7.30
2022-12-08T07:20:50.003Z,7.70
2022-12-08T07:24:57.328Z,8.90
2022-12-08T07:29:05.134Z,8.60
2022-12-08T07:33:13.137Z,7.70
2022-12-08T07:37:21.050Z,8.20
2022-12-08T07:41:29.716Z,11.30
2022-12-08T07:45:37.556Z,11.20
2022-12-08T07:49:45.396Z,10.80
2022-12-08T07:53:55.001Z,10.60
2022-12-08T07:58:03.347Z,8.70
2022-12-08T08:02:25.964Z,7.60
2022-12-08T08:06:34.465Z,7.90
2022-12-08T08:10:42.313Z,6.70
2022-12-08T08:14:50.196Z,6.00
2022-12-08T08:18:58.210Z,6.40
2022-12-08T08:23:07.711Z,5.60
2022-12-08T08:27:15.973Z,7.30
2022-12-08T08:31:29.522Z,7.70
2022-12-08T08:35:38.269Z,7.10
2022-12-08T08:39:46.130Z,5.80
2022-12-08T08:43:54.095Z,5.60
2022-12-08T08:48:01.948Z,6.00
2022-12-08T08:52:12.176Z,6.10
2022-12-08T08:56:21.786Z,6.00
2022-12-08T09:00:29.696Z,5.40
2022-12-08T09:04:37.319Z,5.90
2022-12-08T09:08:45.852Z,7.40
2022-12-08T09:12:53.722Z,10.80
2022-12-08T09:17:02.841Z,7.90
2022-12-08T09:21:15.385Z,7.60
2022-12-08T09:25:22.711Z,5.90
2022-12-08T09:29:35.643Z,6.20
2022-12-08T09:33:45.155Z,6.20
2022-12-08T09:37:52.849Z,6.90
2022-12-08T09:42:03.496Z,5.90
2022-12-08T09:46:14.306Z,6.00
2022-12-08T09:50:31.891Z,6.40
2022-12-08T09:54:39.333Z,6.80
2022-12-08T09:58:53.868Z,6.50
2022-12-08T10:03:01.685Z,6.00
2022-12-08T10:07:18.108Z,6.20
2022-12-08T10:11:30.934Z,6.40
2022-12-08T10:15:45.373Z,6.20
2022-12-08T10:19:55.464Z,6.00
2022-12-08T10:24:07.885Z,7.10
2022-12-08T10:28:17.345Z,7.70
2022-12-08T10:32:27.012Z,7.40
2022-12-08T10:36:51.978Z,6.80
2022-12-08T10:41:06.213Z,5.40
2022-12-08T10:45:26.774Z,4.80
2022-12-08T10:49:36.190Z,5.10
2022-12-08T10:53:49.615Z,5.10
2022-12-08T10:57:57.696Z,5.30
2022-12-08T11:02:09.548Z,6.00
2022-12-08T11:06:21.423Z,5.30
2022-12-08T11:10:37.171Z,6.00
2022-12-08T11:14:53.264Z,6.10
2022-12-08T11:19:01.129Z,6.50
2022-12-08T11:23:22.386Z,7.20
2022-12-08T11:27:30.774Z,6.60
2022-12-08T11:31:42.645Z,7.10
2022-12-08T11:35:53.147Z,7.50
2022-12-08T11:40:05.525Z,7.10
2022-12-08T11:44:27.809Z,6.60
2022-12-08T11:48:39.681Z,7.40
2022-12-08T11:52:50.667Z,7.00
2022-12-08T11:57:00.204Z,6.60
2022-12-08T12:01:10.318Z,6.20
2022-12-08T12:05:47.584Z,6.70
2022-12-08T12:10:11.804Z,7.10
2022-12-08T12:14:33.130Z,8.80
2022-12-08T12:18:46.892Z,8.80
2022-12-08T12:22:59.498Z,7.90
2022-12-08T12:27:21.244Z,8.30
2022-12-08T12:31:31.283Z,8.50
2022-12-08T12:35:42.377Z,13.30
2022-12-08T12:39:56.063Z,12.00
2022-12-08T12:44:37.972Z,10.10
2022-12-08T12:48:45.654Z,7.20
2022-12-08T12:52:53.303Z,8.50
2022-12-08T12:57:22.636Z,8.60
2022-12-08T13:01:57.216Z,8.10
2022-12-08T13:06:09.933Z,9.10
2022-12-08T13:10:23.415Z,8.10
2022-12-08T13:14:33.729Z,8.40
2022-12-08T13:18:44.248Z,7.40
2022-12-08T13:23:26.857Z,7.90
2022-12-08T13:27:37.942Z,8.80
2022-12-08T13:31:50.639Z,7.30
2022-12-08T13:36:12.449Z,8.00
2022-12-08T13:40:22.977Z,7.60
2022-12-08T13:58:06.581Z,7.90
2022-12-08T14:02:20.204Z,8.30
2022-12-08T14:06:31.892Z,9.00
2022-12-08T14:10:40.119Z,10.00
2022-12-08T14:15:05.293Z,10.10
2022-12-08T14:19:24.642Z,9.20
2022-12-08T14:23:33.354Z,11.30
2022-12-08T14:27:41.176Z,11.40
2022-12-08T14:31:49.097Z,12.90
2022-12-08T14:35:57.450Z,11.40
2022-12-08T14:40:08.278Z,9.70
2022-12-08T14:44:25.101Z,9.50
2022-12-08T14:48:44.951Z,10.60
2022-12-08T14:52:52.612Z,11.40
2022-12-08T14:57:01.832Z,10.90
2022-12-08T15:01:10.469Z,10.20
2022-12-08T15:05:20.879Z,9.90
2022-12-08T15:09:36.897Z,11.20
2022-12-08T15:13:49.934Z,14.70
2022-12-08T15:18:07.927Z,47.80
2022-12-08T15:22:19.501Z,37.60
2022-12-08T15:26:29.127Z,32.50
2022-12-08T15:30:36.433Z,32.20
2022-12-08T15:34:44.124Z,31.70
2022-12-08T15:38:53.259Z,29.40
2022-12-08T15:43:01.555Z,38.70
2022-12-08T15:47:12.004Z,46.00
2022-12-08T15:51:20.160Z,29.00
2022-12-08T15:55:28.256Z,16.00
2022-12-08T15:59:36.315Z,15.30
2022-12-08T16:04:25.457Z,20.20
2022-12-08T16:08:44.672Z,21.30
2022-12-08T16:17:24.680Z,20.40
2022-12-08T16:22:04.673Z,20.00
2022-12-08T16:26:28.653Z,18.50
2022-12-08T16:30:28.668Z,20.90
2022-12-08T16:34:36.328Z,28.60
2022-12-08T16:38:44.293Z,35.10
2022-12-08T16:42:52.153Z,31.40
2022-12-08T16:46:59.711Z,26.50
2022-12-08T16:51:10.569Z,49.20
2022-12-08T16:55:20.165Z,31.40
2022-12-08T16:59:28.382Z,23.00
2022-12-08T17:03:35.895Z,26.50
2022-12-08T17:07:44.165Z,23.70
2022-12-08T17:11:51.587Z,17.80
2022-12-08T17:15:59.582Z,15.50
2022-12-08T17:20:09.819Z,16.20
2022-12-08T17:24:21.918Z,16.20
2022-12-08T17:28:51.900Z,19.00
2022-12-08T17:32:58.766Z,20.50
2022-12-08T17:37:06.840Z,20.20
2022-12-08T17:41:15.359Z,20.30
2022-12-08T17:45:23.801Z,20.80
2022-12-08T17:49:33.048Z,18.30
2022-12-08T17:53:41.176Z,14.30
2022-12-08T17:57:49.098Z,14.00
2022-12-08T18:01:57.004Z,13.00
2022-12-08T18:06:09.185Z,11.10
2022-12-08T18:10:16.665Z,10.20
2022-12-08T18:14:24.890Z,10.40
2022-12-08T18:18:32.940Z,21.10
2022-12-08T18:22:41.080Z,25.80
2022-12-08T18:26:49.449Z,29.10
2022-12-08T18:30:56.719Z,29.70
2022-12-08T18:35:04.692Z,35.30
2022-12-08T18:39:24.260Z,26.90
2022-12-08T18:43:31.892Z,23.50
2022-12-08T18:47:40.838Z,19.80
2022-12-08T18:51:48.753Z,15.30
2022-12-08T18:55:56.148Z,17.30
2022-12-08T19:00:03.875Z,19.60
2022-12-08T19:04:28.854Z,20.90
2022-12-08T19:08:37.404Z,24.80
2022-12-08T19:12:45.469Z,26.40
2022-12-08T19:16:54.796Z,31.90
2022-12-08T19:21:02.368Z,29.00
2022-12-08T19:25:12.005Z,24.20
2022-12-08T19:29:20.495Z,22.10
2022-12-08T19:33:29.411Z,19.40
2022-12-08T19:37:37.221Z,17.90
2022-12-08T19:42:03.810Z,17.30
2022-12-08T19:46:12.294Z,14.60
2022-12-08T19:50:40.018Z,15.70
2022-12-08T19:54:47.416Z,14.80
2022-12-08T19:58:54.791Z,13.00
2022-12-08T20:03:04.820Z,14.10
2022-12-08T20:07:15.899Z,13.30
2022-12-08T20:11:23.221Z,13.30
2022-12-08T20:15:31.041Z,12.50
2022-12-08T20:19:38.755Z,13.50
2022-12-08T20:23:50.310Z,14.20
2022-12-08T20:27:59.291Z,15.80
2022-12-08T20:32:07.642Z,14.20
2022-12-08T20:36:19.810Z,13.90
2022-12-08T20:40:27.844Z,14.60
2022-12-08T20:44:35.787Z,12.90
2022-12-08T20:48:43.645Z,14.00
2022-12-08T20:52:51.481Z,15.20
2022-12-08T20:56:59.038Z,16.90
2022-12-08T21:01:13.288Z,18.20
2022-12-08T21:05:21.727Z,16.50
2022-12-08T21:09:29.917Z,13.30
2022-12-08T21:13:39.090Z,12.10
2022-12-08T21:17:47.732Z,12.20
2022-12-08T21:21:56.091Z,12.30
2022-12-08T21:26:04.467Z,11.90
2022-12-08T21:30:14.462Z,12.10
2022-12-08T21:34:22.164Z,14.90
2022-12-08T21:38:30.382Z,15.00
2022-12-08T21:42:45.037Z,16.80
2022-12-08T21:46:52.795Z,16.10
2022-12-08T21:51:06.992Z,17.20
2022-12-08T21:55:15.794Z,20.50
2022-12-08T21:59:23.600Z,23.90
2022-12-08T22:03:31.290Z,23.70
2022-12-08T22:07:42.540Z,23.90
2022-12-08T22:11:50.194Z,24.10
2022-12-08T22:16:01.694Z,20.80
2022-12-08T22:20:13.428Z,21.30
2022-12-08T22:24:21.783Z,26.00
2022-12-08T22:28:32.321Z,30.50
2022-12-08T22:32:39.985Z,27.20
2022-12-08T22:36:49.294Z,21.80
2022-12-08T22:40:57.569Z,21.20
2022-12-08T22:45:05.617Z,21.00
2022-12-08T22:49:13.080Z,21.30
2022-12-08T22:53:20.859Z,18.90
2022-12-08T22:57:28.638Z,20.40
2022-12-08T23:01:37.886Z,19.90
2022-12-08T23:05:45.789Z,16.00
2022-12-08T23:09:53.609Z,14.80
2022-12-08T23:14:07.825Z,14.40
2022-12-08T23:18:19.344Z,14.70
2022-12-08T23:22:28.091Z,15.40
2022-12-08T23:26:36.351Z,14.40
2022-12-08T23:30:44.436Z,15.10
2022-12-08T23:34:52.371Z,14.30
2022-12-08T23:39:00.229Z,13.50
2022-12-08T23:43:09.318Z,15.00
2022-12-08T23:47:17.304Z,15.00
2022-12-08T23:51:25.138Z,16.50
2022-12-08T23:55:32.995Z,14.50
2022-12-08T23:59:41.032Z,15.70
